createdAt,value
2023-03-29T00:04:27.878Z,101103.72
2023-03-29T00:10:17.131Z,101097.94
2023-03-29T00:16:04.285Z,101085.94
2023-03-29T00:21:51.410Z,101093.91
2023-03-29T00:27:38.827Z,101089.19
2023-03-29T00:33:28.147Z,101089.19
2023-03-29T00:39:15.122Z,101076.47
2023-03-29T00:45:19.158Z,101076.19
2023-03-29T00:51:10.389Z,101072.75
2023-03-29T00:56:58.266Z,101075.38
2023-03-29T01:02:51.143Z,101083.06
2023-03-29T01:08:54.305Z,101072.50
2023-03-29T01:14:56.974Z,101064.84
2023-03-29T01:20:49.187Z,101060.56
2023-03-29T01:26:56.158Z,101056.34
2023-03-29T01:33:21.421Z,101046.81
2023-03-29T01:39:08.499Z,101032.00
2023-03-29T01:45:21.184Z,101013.19
2023-03-29T01:51:16.935Z,100997.03
2023-03-29T01:57:07.217Z,100987.78
2023-03-29T02:03:00.384Z,100992.06
2023-03-29T02:08:53.193Z,101003.41
2023-03-29T02:14:40.592Z,100989.69
2023-03-29T02:20:33.915Z,100982.78
2023-03-29T02:27:22.022Z,100978.00
2023-03-29T02:33:22.007Z,100993.53
2023-03-29T02:39:31.894Z,100988.56
2023-03-29T02:45:22.054Z,100986.97
2023-03-29T02:51:17.437Z,100988.59
2023-03-29T02:57:06.711Z,100982.53
2023-03-29T03:02:57.791Z,100977.22
2023-03-29T03:08:51.056Z,100980.66
2023-03-29T03:14:38.129Z,100964.25
2023-03-29T03:20:26.638Z,100966.88
2023-03-29T03:26:15.949Z,100969.00
2023-03-29T03:32:04.481Z,100968.50
2023-03-29T03:38:15.416Z,100939.34
2023-03-29T03:44:03.729Z,100955.78
2023-03-29T03:49:51.755Z,100947.28
2023-03-29T03:55:46.066Z,100955.50
2023-03-29T04:01:43.613Z,100944.63
2023-03-29T04:07:41.525Z,100952.34
2023-03-29T04:13:46.166Z,100936.16
2023-03-29T04:19:58.888Z,100927.94
2023-03-29T04:25:55.598Z,100927.94
2023-03-29T04:32:02.763Z,100920.81
2023-03-29T04:38:16.872Z,100935.88
2023-03-29T04:44:06.964Z,100913.94
2023-03-29T04:49:54.751Z,100909.16
2023-03-29T04:55:59.545Z,100896.47
2023-03-29T05:02:07.491Z,100916.78
2023-03-29T05:07:59.053Z,100905.69
2023-03-29T05:13:58.559Z,100903.81
2023-03-29T05:19:51.461Z,100917.06
2023-03-29T05:25:40.739Z,100907.59
2023-03-29T05:31:28.303Z,100914.19
2023-03-29T05:37:16.450Z,100913.66
2023-03-29T05:43:14.875Z,100924.56
2023-03-29T05:49:02.649Z,100910.78
2023-03-29T05:55:12.259Z,100924.53
2023-03-29T06:01:04.685Z,100931.41
2023-03-29T06:07:12.401Z,100938.56
2023-03-29T06:13:02.292Z,100919.25
2023-03-29T06:18:55.997Z,100923.72
2023-03-29T06:24:43.120Z,100925.03
2023-03-29T06:30:42.116Z,100919.47
2023-03-29T06:36:29.591Z,100918.06
2023-03-29T06:42:21.271Z,100910.03
2023-03-29T06:48:31.867Z,100912.19
2023-03-29T06:54:19.931Z,100907.97
2023-03-29T07:00:35.886Z,100903.69
2023-03-29T07:06:39.262Z,100905.50
2023-03-29T07:12:27.220Z,100916.09
2023-03-29T07:18:19.284Z,100920.84
2023-03-29T07:24:11.696Z,100914.81
2023-03-29T07:30:02.857Z,100914.50
2023-03-29T07:35:55.769Z,100914.81
2023-03-29T07:41:46.372Z,100911.50
2023-03-29T07:47:33.651Z,100905.59
2023-03-29T07:53:21.865Z,100897.53
2023-03-29T07:59:12.606Z,100885.94
2023-03-29T08:05:02.282Z,100855.34
2023-03-29T08:11:09.037Z,100864.88
2023-03-29T08:32:31.839Z,100873.06
2023-03-29T08:38:20.106Z,100878.28
2023-03-29T08:44:20.486Z,100859.44
2023-03-29T08:50:59.116Z,100844.97
2023-03-29T08:57:43.173Z,100835.06
2023-03-29T09:20:32.948Z,100811.88
2023-03-29T09:26:31.294Z,100814.19
2023-03-29T09:32:52.303Z,100793.97
2023-03-29T09:38:48.098Z,100783.88
2023-03-29T09:52:23.236Z,100775.69
2023-03-29T09:58:33.286Z,100751.09
2023-03-29T10:05:49.956Z,100748.31
2023-03-29T10:12:28.422Z,100741.09
2023-03-29T10:32:53.459Z,100740.91
2023-03-29T10:46:34.079Z,100724.28
2023-03-29T11:15:19.263Z,100672.94
2023-03-29T11:28:22.795Z,100658.09
2023-03-29T12:05:35.562Z,100636.25
2023-03-29T12:11:38.532Z,100610.72
2023-03-29T12:25:26.463Z,100616.22
2023-03-29T12:31:40.643Z,100608.94
2023-03-29T12:37:53.868Z,100592.47
2023-03-29T12:44:04.012Z,100571.97
2023-03-29T13:19:20.735Z,100536.91
2023-03-29T13:33:20.328Z,100512.19
2023-03-29T13:55:15.359Z,100471.13
2023-03-29T14:15:11.947Z,100467.31
2023-03-29T14:21:02.491Z,100463.03
2023-03-29T14:26:52.814Z,100447.69
2023-03-29T14:32:39.738Z,100447.81
2023-03-29T14:38:27.640Z,100431.34
2023-03-29T14:44:32.615Z,100424.56
2023-03-29T15:13:48.371Z,100381.13
2023-03-29T15:19:48.391Z,100376.06
2023-03-29T15:27:37.411Z,100370.44
2023-03-29T15:32:51.236Z,100368.88
2023-03-29T15:38:50.362Z,100343.59
2023-03-29T15:44:43.561Z,100330.13
2023-03-29T15:50:37.021Z,100322.13
2023-03-29T15:56:24.050Z,100307.25
2023-03-29T16:08:34.996Z,100275.25
2023-03-29T16:14:27.819Z,100274.13
2023-03-29T16:20:22.212Z,100265.19
2023-03-29T16:26:34.504Z,100249.97
2023-03-29T16:33:13.484Z,100251.41
2023-03-29T16:39:37.291Z,100239.06
2023-03-29T16:45:39.250Z,100223.16
2023-03-29T16:51:44.498Z,100207.78
2023-03-29T16:57:35.211Z,100197.44
2023-03-29T17:03:25.826Z,100185.97
2023-03-29T17:15:52.972Z,100206.53
2023-03-29T17:21:58.582Z,100205.75
2023-03-29T17:28:05.129Z,100208.44
2023-03-29T17:34:01.061Z,100181.84
2023-03-29T17:39:48.021Z,100184.50
2023-03-29T17:51:36.615Z,100175.41
2023-03-29T17:57:25.806Z,100184.78
2023-03-29T18:03:12.641Z,100191.00
2023-03-29T18:09:01.672Z,100186.44
2023-03-29T18:14:51.288Z,100266.63
2023-03-29T18:20:38.257Z,100204.59
2023-03-29T18:26:25.820Z,100219.34
2023-03-29T18:32:12.838Z,100220.72
2023-03-29T18:37:59.664Z,100208.34
2023-03-29T18:43:47.751Z,100241.00
2023-03-29T18:49:34.838Z,100218.63
2023-03-29T18:55:24.147Z,100220.97
2023-03-29T19:01:12.872Z,100225.78
2023-03-29T19:07:01.519Z,100191.63
2023-03-29T19:12:48.731Z,100191.13
2023-03-29T19:18:35.829Z,100164.91
2023-03-29T19:24:23.164Z,100173.56
2023-03-29T19:30:16.473Z,100159.31
2023-03-29T19:36:03.921Z,100139.44
2023-03-29T19:41:55.440Z,100130.03
2023-03-29T19:47:47.666Z,100118.50
2023-03-29T19:53:38.258Z,100127.75
2023-03-29T19:59:27.059Z,100128.94
2023-03-29T20:05:17.963Z,100129.91
2023-03-29T20:11:10.428Z,100119.31
2023-03-29T20:16:57.442Z,100108.44
2023-03-29T20:22:45.567Z,100112.06
2023-03-29T20:28:35.350Z,100122.44
2023-03-29T20:34:22.616Z,100105.31
2023-03-29T20:40:11.356Z,100086.38
2023-03-29T20:46:03.356Z,100085.81
2023-03-29T20:52:58.874Z,100083.97
2023-03-29T20:59:37.798Z,100085.88
2023-03-29T21:05:35.208Z,100086.25
2023-03-29T21:19:19.110Z,100083.28
2023-03-29T21:26:06.036Z,100080.50
2023-03-29T21:40:07.156Z,100084.13
2023-03-29T21:55:53.647Z,100059.66
2023-03-29T22:01:55.032Z,100045.41
2023-03-29T22:07:57.660Z,100034.31
2023-03-29T22:14:11.644Z,100040.41
2023-03-29T22:28:48.569Z,100022.47
2023-03-29T22:34:44.662Z,100005.75
2023-03-29T22:41:01.563Z,100008.38
2023-03-29T22:47:09.470Z,100003.16
2023-03-29T22:53:05.633Z,99993.47
2023-03-29T22:58:57.345Z,99983.63
2023-03-29T23:04:53.770Z,99970.34
2023-03-29T23:11:02.839Z,99963.34
2023-03-29T23:16:55.012Z,99951.16
2023-03-29T23:22:42.020Z,99953.16
2023-03-29T23:28:30.746Z,99951.19
2023-03-29T23:34:22.773Z,99956.59
2023-03-29T23:40:15.523Z,99960.53
2023-03-29T23:46:05.753Z,99940.84
2023-03-29T23:51:52.766Z,99937.38
2023-03-29T23:57:39.675Z,99927.28
